createdAt,value
2022-10-13T00:00:51.916Z,100808.25
2022-10-13T00:01:53.395Z,100817.25
2022-10-13T00:02:54.990Z,100809.94
2022-10-13T00:03:56.516Z,100815.56
2022-10-13T00:04:57.950Z,100815.03
2022-10-13T00:06:00.145Z,100813.34
2022-10-13T00:07:01.642Z,100811.66
2022-10-13T00:08:03.199Z,100811.66
2022-10-13T00:09:05.410Z,100804.38
2022-10-13T00:10:06.943Z,100807.47
2022-10-13T00:11:12.975Z,100813.09
2022-10-13T00:12:14.427Z,100806.63
2022-10-13T00:13:15.867Z,100806.91
2022-10-13T00:14:17.638Z,100816.19
2022-10-13T00:15:19.413Z,100808.88
2022-10-13T00:16:20.951Z,100814.50
2022-10-13T00:17:22.526Z,100812.78
2022-10-13T00:18:23.984Z,100824.03
2022-10-13T00:19:25.443Z,100817.88
2022-10-13T00:20:26.956Z,100810.56
2022-10-13T00:21:28.462Z,100811.69
2022-10-13T00:22:29.923Z,100821.25
2022-10-13T00:23:31.412Z,100814.81
2022-10-13T00:24:32.850Z,100818.75
2022-10-13T00:25:34.274Z,100822.69
2022-10-13T00:26:35.760Z,100824.38
2022-10-13T00:27:39.807Z,100823.22
2022-10-13T00:28:41.291Z,100822.41
2022-10-13T00:29:42.766Z,100828.00
2022-10-13T00:30:44.323Z,100821.25
2022-10-13T00:31:45.825Z,100824.06
2022-10-13T00:32:47.327Z,100824.91
2022-10-13T00:33:49.411Z,100830.25
2022-10-13T00:34:52.966Z,100833.06
2022-10-13T00:35:55.377Z,100827.72
2022-10-13T00:36:56.842Z,100834.19
2022-10-13T00:37:59.168Z,100823.22
2022-10-13T00:39:04.851Z,100830.81
2022-10-13T00:40:07.515Z,100834.22
2022-10-13T00:41:08.956Z,100830.56
2022-10-13T00:42:11.987Z,100838.16
2022-10-13T00:43:17.602Z,100831.69
2022-10-13T00:44:37.879Z,100826.31
2022-10-13T00:45:39.440Z,100834.22
2022-10-13T00:46:40.875Z,100832.53
2022-10-13T00:47:43.623Z,100831.97
2022-10-13T00:48:45.190Z,100827.50
2022-10-13T00:49:46.663Z,100825.81
2022-10-13T00:50:48.093Z,100824.97
2022-10-13T00:51:49.613Z,100819.63
2022-10-13T00:52:51.357Z,100823.56
2022-10-13T00:53:53.591Z,100821.88
2022-10-13T00:54:57.474Z,100818.25
2022-10-13T00:56:00.175Z,100823.03
2022-10-13T00:57:02.848Z,100815.97
2022-10-13T00:58:05.661Z,100816.25
2022-10-13T00:59:09.259Z,100814.59
2022-10-13T01:00:11.309Z,100810.94
2022-10-13T01:01:12.875Z,100810.09
2022-10-13T01:02:14.370Z,100814.31
2022-10-13T01:03:15.835Z,100815.16
2022-10-13T01:04:17.507Z,100807.00
2022-10-13T01:05:19.630Z,100823.03
2022-10-13T01:06:23.638Z,100810.13
2022-10-13T01:07:25.423Z,100806.72
2022-10-13T01:08:27.295Z,100817.41
2022-10-13T01:09:37.504Z,100805.03
2022-10-13T01:10:58.049Z,100813.75
2022-10-13T01:12:18.681Z,100812.91
2022-10-13T01:13:40.633Z,100813.19
2022-10-13T01:14:46.691Z,100817.13
2022-10-13T01:15:53.893Z,100811.81
2022-10-13T01:16:58.760Z,100817.72
2022-10-13T01:18:06.373Z,100809.56
2022-10-13T01:19:26.688Z,100810.41
2022-10-13T01:20:37.379Z,100819.97
2022-10-13T01:21:43.502Z,100809.84
2022-10-13T01:22:53.725Z,100810.69
2022-10-13T01:23:58.241Z,100821.94
2022-10-13T01:25:18.198Z,100819.38
2022-10-13T01:26:38.247Z,100814.91
2022-10-13T01:27:51.874Z,100819.13
2022-10-13T01:28:53.299Z,100819.66
2022-10-13T01:30:08.057Z,100819.97
2022-10-13T01:31:12.597Z,100812.66
2022-10-13T01:32:17.517Z,100823.06
2022-10-13T01:33:19.184Z,100821.38
2022-10-13T01:34:23.748Z,100816.59
2022-10-13T01:35:25.187Z,100812.09
2022-10-13T01:36:49.982Z,100814.06
2022-10-13T01:37:54.479Z,100810.44
2022-10-13T01:38:59.491Z,100808.75
2022-10-13T01:40:03.499Z,100812.41
2022-10-13T01:41:10.611Z,100817.16
2022-10-13T01:42:17.027Z,100807.91
2022-10-13T01:43:31.234Z,100811.84
2022-10-13T01:44:36.436Z,100805.66
2022-10-13T01:45:42.678Z,100802.84
2022-10-13T01:46:46.787Z,100805.06
2022-10-13T01:47:48.267Z,100804.25
2022-10-13T01:48:49.694Z,100794.97
2022-10-13T01:49:51.119Z,100801.72
2022-10-13T01:50:52.907Z,100806.50
2022-10-13T01:51:54.574Z,100804.53
2022-10-13T01:52:56.016Z,100798.06
2022-10-13T01:53:57.467Z,100802.00
2022-10-13T01:55:01.061Z,100800.03
2022-10-13T01:56:02.523Z,100802.00
2022-10-13T01:57:04.070Z,100812.41
2022-10-13T01:58:05.525Z,100801.16
2022-10-13T01:59:08.741Z,100798.34
2022-10-13T02:00:11.333Z,100806.78
2022-10-13T02:01:20.216Z,100795.00
2022-10-13T02:02:24.066Z,100792.19
2022-10-13T02:03:37.092Z,100796.13
2022-10-13T02:04:41.289Z,100783.19
2022-10-13T02:05:50.485Z,100783.19
2022-10-13T02:06:53.028Z,100787.13
2022-10-13T02:07:56.362Z,100784.31
2022-10-13T02:09:05.689Z,100779.84
2022-10-13T02:10:09.463Z,100783.78
2022-10-13T02:11:12.932Z,100782.91
2022-10-13T02:12:19.390Z,100775.59
2022-10-13T02:13:22.079Z,100780.38
2022-10-13T02:14:24.602Z,100786.00
2022-10-13T02:15:28.643Z,100775.88
2022-10-13T02:16:31.300Z,100782.59
2022-10-13T02:17:32.863Z,100779.78
2022-10-13T02:18:34.755Z,100776.97
2022-10-13T02:19:37.103Z,100776.13
2022-10-13T02:20:39.499Z,100775.31
2022-10-13T02:21:41.333Z,100779.25
2022-10-13T02:22:44.741Z,100774.47
2022-10-13T02:23:46.245Z,100764.34
2022-10-13T02:24:47.804Z,100773.63
2022-10-13T02:25:50.998Z,100777.56
2022-10-13T02:26:52.447Z,100767.44
2022-10-13T02:27:54.847Z,100770.25
2022-10-13T02:28:56.379Z,100777.00
2022-10-13T02:29:57.878Z,100782.91
2022-10-13T02:31:04.145Z,100778.13
2022-10-13T02:32:05.675Z,100781.22
2022-10-13T02:33:07.329Z,100767.44
2022-10-13T02:34:09.932Z,100776.97
2022-10-13T02:35:11.402Z,100775.31
2022-10-13T02:36:12.827Z,100773.63
2022-10-13T02:37:14.284Z,100766.88
2022-10-13T02:38:15.926Z,100768.00
2022-10-13T02:39:17.892Z,100759.59
2022-10-13T02:40:19.423Z,100769.97
2022-10-13T02:41:20.982Z,100763.22
2022-10-13T02:42:22.953Z,100768.00
2022-10-13T02:43:25.006Z,100772.50
2022-10-13T02:44:26.508Z,100776.44
2022-10-13T02:45:27.991Z,100773.63
2022-10-13T02:46:29.571Z,100773.63
2022-10-13T02:47:31.027Z,100777.56
2022-10-13T02:48:33.990Z,100773.38
2022-10-13T02:49:35.491Z,100778.41
2022-10-13T02:50:36.978Z,100761.28
2022-10-13T02:51:40.382Z,100771.38
2022-10-13T02:52:42.040Z,100775.88
2022-10-13T02:53:43.523Z,100764.06
2022-10-13T02:54:44.985Z,100768.00
2022-10-13T02:55:46.568Z,100771.38
2022-10-13T02:56:48.270Z,100773.63
2022-10-13T02:57:49.743Z,100769.13
2022-10-13T02:58:51.843Z,100784.84
2022-10-13T02:59:53.428Z,100783.16
2022-10-13T03:00:55.020Z,100779.53
2022-10-13T03:01:56.833Z,100779.53
2022-10-13T03:02:58.583Z,100784.28
2022-10-13T03:04:00.035Z,100773.59
2022-10-13T03:05:01.567Z,100782.63
2022-10-13T03:06:03.078Z,100779.81
2022-10-13T03:07:04.539Z,100781.50
2022-10-13T03:08:06.072Z,100777.56
2022-10-13T03:09:07.639Z,100779.25
2022-10-13T03:10:10.132Z,100772.78
2022-10-13T03:11:11.596Z,100777.00
2022-10-13T03:12:13.302Z,100778.69
2022-10-13T03:13:14.738Z,100773.06
2022-10-13T03:14:16.243Z,100769.41
2022-10-13T03:15:17.779Z,100771.09
2022-10-13T03:16:21.463Z,100761.53
2022-10-13T03:17:22.952Z,100766.88
2022-10-13T03:18:24.389Z,100770.25
2022-10-13T03:19:25.899Z,100769.13
2022-10-13T03:20:27.407Z,100767.44
2022-10-13T03:21:28.863Z,100768.28
2022-10-13T03:22:31.648Z,100769.69
2022-10-13T03:23:33.251Z,100771.09
2022-10-13T03:24:34.746Z,100768.88
2022-10-13T03:25:36.213Z,100773.06
2022-10-13T03:26:37.719Z,100769.44
2022-10-13T03:27:39.178Z,100773.06
2022-10-13T03:28:40.731Z,100767.47
2022-10-13T03:29:42.260Z,100770.25
2022-10-13T03:30:43.690Z,100770.84
2022-10-13T03:31:45.239Z,100774.47
2022-10-13T03:32:46.734Z,100775.03
2022-10-13T03:33:50.763Z,100768.03
2022-10-13T03:34:52.327Z,100771.69
2022-10-13T03:35:53.796Z,100766.91
2022-10-13T03:36:55.259Z,100764.94
2022-10-13T03:37:56.739Z,100770.25
2022-10-13T03:38:59.496Z,100760.72
2022-10-13T03:40:00.966Z,100772.50
2022-10-13T03:41:06.059Z,100774.19
2022-10-13T03:42:07.611Z,100775.88
2022-10-13T03:43:12.242Z,100769.13
2022-10-13T03:44:13.724Z,100768.84
2022-10-13T03:45:15.374Z,100777.84
2022-10-13T03:46:17.528Z,100775.03
2022-10-13T03:47:19.996Z,100774.75
2022-10-13T03:48:21.607Z,100772.50
2022-10-13T03:49:23.102Z,100772.50
2022-10-13T03:50:24.571Z,100775.88
2022-10-13T03:51:26.063Z,100780.38
2022-10-13T03:52:27.492Z,100768.00
2022-10-13T03:53:29.034Z,100775.59
2022-10-13T03:54:30.500Z,100769.69
2022-10-13T03:55:32.046Z,100768.84
2022-10-13T03:56:33.562Z,100773.63
2022-10-13T03:57:35.011Z,100769.13
2022-10-13T03:58:36.487Z,100763.81
2022-10-13T03:59:39.411Z,100764.94
2022-10-13T04:00:40.891Z,100762.97
2022-10-13T04:01:42.420Z,100766.59
2022-10-13T04:02:43.917Z,100768.28
2022-10-13T04:03:45.421Z,100763.50
2022-10-13T04:04:46.867Z,100766.03
2022-10-13T04:05:48.361Z,100760.13
2022-10-13T04:06:49.915Z,100760.13
2022-10-13T04:07:51.727Z,100767.44
2022-10-13T04:08:54.835Z,100758.75
2022-10-13T04:09:56.324Z,100759.59
2022-10-13T04:10:58.595Z,100766.91
2022-10-13T04:12:00.295Z,100760.16
2022-10-13T04:13:01.764Z,100764.34
2022-10-13T04:14:03.671Z,100769.69
2022-10-13T04:15:05.352Z,100756.47
2022-10-13T04:16:08.002Z,100778.69
2022-10-13T04:17:09.511Z,100769.97
2022-10-13T04:18:10.968Z,100762.41
2022-10-13T04:19:12.772Z,100764.13
2022-10-13T04:20:14.226Z,100764.13
2022-10-13T04:21:15.770Z,100764.66
2022-10-13T04:22:17.443Z,100769.44
2022-10-13T04:23:22.546Z,100777.59
2022-10-13T04:24:24.048Z,100768.03
2022-10-13T04:25:25.478Z,100775.34
2022-10-13T04:26:27.506Z,100771.41
2022-10-13T04:27:29.015Z,100771.94
2022-10-13T04:28:30.584Z,100765.50
2022-10-13T04:29:32.168Z,100765.19
2022-10-13T04:30:34.138Z,100769.13
2022-10-13T04:31:35.638Z,100757.63
2022-10-13T04:32:37.089Z,100764.06
2022-10-13T04:33:38.705Z,100769.41
2022-10-13T04:34:40.263Z,100764.91
2022-10-13T04:35:41.939Z,100761.25
2022-10-13T04:36:43.526Z,100766.88
2022-10-13T04:37:45.363Z,100761.00
2022-10-13T04:38:46.940Z,100767.47
2022-10-13T04:39:48.482Z,100766.63
2022-10-13T04:40:50.410Z,100767.47
2022-10-13T04:41:51.906Z,100761.84
2022-10-13T04:42:53.404Z,100763.53
2022-10-13T04:43:55.105Z,100757.91
2022-10-13T04:44:56.764Z,100762.69
2022-10-13T04:46:06.162Z,100759.59
2022-10-13T04:47:07.666Z,100763.53
2022-10-13T04:48:09.128Z,100766.03
2022-10-13T04:49:10.633Z,100762.41
2022-10-13T04:50:12.998Z,100767.72
2022-10-13T04:51:15.255Z,100768.84
2022-10-13T04:52:16.952Z,100765.75
2022-10-13T04:53:19.427Z,100759.00
2022-10-13T04:54:21.010Z,100753.41
2022-10-13T04:55:22.459Z,100747.78
2022-10-13T04:56:23.908Z,100744.97
2022-10-13T04:57:25.456Z,100756.19
2022-10-13T04:58:26.902Z,100747.78
2022-10-13T04:59:28.615Z,100748.66
2022-10-13T05:00:30.162Z,100745.56
2022-10-13T05:01:31.691Z,100741.63
2022-10-13T05:02:35.034Z,100734.31
2022-10-13T05:03:38.027Z,100734.31
2022-10-13T05:04:39.508Z,100727.03
2022-10-13T05:05:42.227Z,100732.63
2022-10-13T05:07:12.591Z,100727.03
2022-10-13T05:08:05.936Z,100719.69
2022-10-13T05:09:07.387Z,100717.16
2022-10-13T05:10:09.094Z,100720.25
2022-10-13T05:11:10.537Z,100720.25
2022-10-13T05:12:12.015Z,100716.91
2022-10-13T05:13:13.705Z,100719.16
2022-10-13T05:14:15.140Z,100706.78
2022-10-13T05:15:16.610Z,100712.69
2022-10-13T05:16:18.566Z,100720.28
2022-10-13T05:17:20.059Z,100716.63
2022-10-13T05:18:21.568Z,100713.28
2022-10-13T05:19:23.326Z,100714.38
2022-10-13T05:20:26.762Z,100716.63
2022-10-13T05:21:28.578Z,100723.91
2022-10-13T05:22:30.083Z,100721.09
2022-10-13T05:23:31.614Z,100725.59
2022-10-13T05:24:38.912Z,100719.13
2022-10-13T05:25:40.493Z,100717.47
2022-10-13T05:26:45.381Z,100724.75
2022-10-13T05:27:46.979Z,100719.97
2022-10-13T05:28:48.566Z,100719.13
2022-10-13T05:29:50.074Z,100723.06
2022-10-13T05:30:51.578Z,100717.47
2022-10-13T05:31:53.059Z,100721.94
2022-10-13T05:32:54.577Z,100722.78
2022-10-13T05:33:56.519Z,100715.22
2022-10-13T05:34:57.982Z,100712.41
2022-10-13T05:36:03.879Z,100713.53
2022-10-13T05:37:05.688Z,100711.00
2022-10-13T05:38:07.869Z,100717.47
2022-10-13T05:39:09.614Z,100715.50
2022-10-13T05:40:11.343Z,100711.84
2022-10-13T05:41:13.229Z,100707.06
2022-10-13T05:42:14.947Z,100718.31
2022-10-13T05:43:16.490Z,100723.63
2022-10-13T05:44:17.947Z,100722.50
2022-10-13T05:45:28.149Z,100723.34
2022-10-13T05:46:29.638Z,100715.22
2022-10-13T05:47:31.088Z,100717.47
2022-10-13T05:48:32.595Z,100718.31
2022-10-13T05:49:36.415Z,100710.44
2022-10-13T05:50:37.927Z,100712.13
2022-10-13T05:51:46.287Z,100705.69
2022-10-13T05:52:47.819Z,100709.31
2022-10-13T05:53:55.345Z,100715.78
2022-10-13T05:55:00.411Z,100711.84
2022-10-13T05:56:06.206Z,100712.41
2022-10-13T05:57:16.506Z,100709.34
2022-10-13T05:58:17.967Z,100708.19
2022-10-13T05:59:23.334Z,100711.31
2022-10-13T06:00:27.661Z,100708.50
2022-10-13T06:01:31.077Z,100712.97
2022-10-13T06:02:38.592Z,100721.13
2022-10-13T06:03:40.165Z,100716.38
2022-10-13T06:04:42.908Z,100717.47
2022-10-13T06:05:45.305Z,100723.94
2022-10-13T06:06:47.323Z,100722.00
2022-10-13T06:07:48.750Z,100721.13
2022-10-13T06:08:50.534Z,100722.25
2022-10-13T06:09:52.021Z,100727.59
2022-10-13T06:10:53.535Z,100721.13
2022-10-13T06:11:58.409Z,100722.00
2022-10-13T06:12:59.849Z,100723.66
2022-10-13T06:14:01.374Z,100729.28
2022-10-13T06:15:02.901Z,100718.91
2022-10-13T06:16:04.516Z,100725.91
2022-10-13T06:17:05.999Z,100727.88
2022-10-13T06:18:08.967Z,100731.53
2022-10-13T06:19:10.440Z,100727.59
2022-10-13T06:20:11.916Z,100721.97
2022-10-13T06:21:13.612Z,100730.41
2022-10-13T06:22:15.624Z,100721.97
2022-10-13T06:23:17.862Z,100721.13
2022-10-13T06:24:19.358Z,100721.69
2022-10-13T06:25:20.786Z,100719.16
2022-10-13T06:26:22.251Z,100718.03
2022-10-13T06:27:23.756Z,100719.72
2022-10-13T06:28:28.047Z,100714.94
2022-10-13T06:29:29.551Z,100718.59
2022-10-13T06:30:31.102Z,100718.59
2022-10-13T06:31:32.536Z,100720.25
2022-10-13T06:32:34.035Z,100709.88
2022-10-13T06:33:35.582Z,100713.22
2022-10-13T06:34:37.086Z,100714.06
2022-10-13T06:35:38.528Z,100715.78
2022-10-13T06:36:42.143Z,100725.31
2022-10-13T06:37:48.551Z,100730.66
2022-10-13T06:38:50.079Z,100718.59
2022-10-13T06:39:54.707Z,100717.47
2022-10-13T06:40:59.320Z,100719.13
2022-10-13T06:42:01.724Z,100707.91
2022-10-13T06:43:04.072Z,100709.59
2022-10-13T06:44:07.966Z,100709.03
2022-10-13T06:45:09.683Z,100715.22
2022-10-13T06:46:13.833Z,100716.34
2022-10-13T06:47:15.587Z,100714.13
2022-10-13T06:48:17.143Z,100712.97
2022-10-13T06:49:18.660Z,100703.44
2022-10-13T06:50:20.398Z,100714.09
2022-10-13T06:51:21.923Z,100711.84
2022-10-13T06:52:24.072Z,100725.34
2022-10-13T06:53:25.586Z,100725.91
2022-10-13T06:54:27.081Z,100721.41
2022-10-13T06:55:28.604Z,100726.75
2022-10-13T06:56:30.135Z,100726.19
2022-10-13T06:57:33.634Z,100725.34
2022-10-13T06:58:36.905Z,100728.16
2022-10-13T06:59:38.345Z,100730.41
2022-10-13T07:00:43.043Z,100733.19
2022-10-13T07:01:45.212Z,100728.72
2022-10-13T07:02:49.536Z,100734.34
2022-10-13T07:03:51.196Z,100736.31
2022-10-13T07:04:55.638Z,100733.78
2022-10-13T07:06:00.942Z,100731.81
2022-10-13T07:07:02.439Z,100729.25
2022-10-13T07:08:03.991Z,100730.41
2022-10-13T07:09:05.887Z,100729.53
2022-10-13T07:10:07.546Z,100726.44
2022-10-13T07:11:14.576Z,100724.22
2022-10-13T07:12:17.566Z,100724.50
2022-10-13T07:13:19.358Z,100730.66
2022-10-13T07:14:20.834Z,100732.63
2022-10-13T07:15:24.494Z,100728.69
2022-10-13T07:16:26.818Z,100726.19
2022-10-13T07:17:28.458Z,100723.94
2022-10-13T07:18:29.942Z,100726.44
2022-10-13T07:19:31.587Z,100727.03
2022-10-13T07:20:33.123Z,100722.25
2022-10-13T07:21:34.600Z,100727.59
2022-10-13T07:22:36.156Z,100723.38
2022-10-13T07:23:37.759Z,100715.78
2022-10-13T07:24:39.199Z,100711.59
2022-10-13T07:25:40.722Z,100708.50
2022-10-13T07:26:42.831Z,100706.81
2022-10-13T07:27:44.488Z,100710.75
2022-10-13T07:28:46.150Z,100704.03
2022-10-13T07:29:47.598Z,100699.81
2022-10-13T07:30:49.145Z,100709.34
2022-10-13T07:31:51.034Z,100712.16
2022-10-13T07:32:52.485Z,100707.66
2022-10-13T07:33:54.034Z,100709.09
2022-10-13T07:35:01.954Z,100702.91
2022-10-13T07:36:03.654Z,100709.66
2022-10-13T07:37:05.100Z,100712.97
2022-10-13T07:38:07.139Z,100708.22
2022-10-13T07:39:09.173Z,100710.72
2022-10-13T07:40:11.298Z,100701.19
2022-10-13T07:41:12.929Z,100700.63
2022-10-13T07:42:14.482Z,100697.50
2022-10-13T07:43:16.075Z,100699.47
2022-10-13T07:44:17.615Z,100696.13
2022-10-13T07:45:19.101Z,100698.66
2022-10-13T07:46:20.644Z,100699.78
2022-10-13T07:47:22.501Z,100698.66
2022-10-13T07:48:24.300Z,100697.81
2022-10-13T07:49:25.819Z,100699.53
2022-10-13T07:50:27.306Z,100696.69
2022-10-13T07:51:28.846Z,100700.88
2022-10-13T07:52:30.320Z,100698.09
2022-10-13T07:53:31.829Z,100700.63
2022-10-13T07:54:33.336Z,100705.97
2022-10-13T07:55:34.931Z,100702.03
2022-10-13T07:56:36.400Z,100702.84
2022-10-13T07:57:39.011Z,100695.00
2022-10-13T07:58:41.288Z,100692.50
2022-10-13T07:59:42.754Z,100697.53
2022-10-13T08:00:55.334Z,100699.47
2022-10-13T08:02:00.644Z,100705.94
2022-10-13T08:03:02.111Z,100699.47
2022-10-13T08:04:03.656Z,100694.41
2022-10-13T08:05:05.351Z,100700.03
2022-10-13T08:06:06.939Z,100698.91
2022-10-13T08:07:08.815Z,100687.38
2022-10-13T08:08:10.283Z,100699.44
2022-10-13T08:09:11.756Z,100692.13
2022-10-13T08:10:13.690Z,100698.88
2022-10-13T08:11:16.718Z,100692.72
2022-10-13T08:12:18.994Z,100704.78
2022-10-13T08:13:20.756Z,100696.06
2022-10-13T08:14:22.232Z,100703.06
2022-10-13T08:15:23.763Z,100703.34
2022-10-13T08:16:25.220Z,100703.03
2022-10-13T08:17:26.678Z,100698.25
2022-10-13T08:18:28.274Z,100709.50
2022-10-13T08:19:29.791Z,100708.38
2022-10-13T08:20:41.011Z,100712.91
2022-10-13T08:22:01.856Z,100716.84
2022-10-13T08:23:03.951Z,100719.69
2022-10-13T08:24:06.215Z,100716.59
2022-10-13T08:25:07.814Z,100711.84
2022-10-13T08:26:19.879Z,100719.69
2022-10-13T08:27:22.227Z,100714.63
2022-10-13T08:28:25.906Z,100711.78
2022-10-13T08:29:27.471Z,100710.13
2022-10-13T08:30:29.075Z,100706.72
2022-10-13T08:31:30.762Z,100708.41
2022-10-13T08:32:32.720Z,100702.19
2022-10-13T08:33:34.187Z,100702.75
2022-10-13T08:34:36.867Z,100696.59
2022-10-13T08:35:38.798Z,100704.47
2022-10-13T08:36:40.536Z,100703.03
2022-10-13T08:37:42.059Z,100699.94
2022-10-13T08:38:43.874Z,100708.38
2022-10-13T08:39:45.454Z,100699.69
2022-10-13T08:40:49.919Z,100706.75
2022-10-13T08:41:51.392Z,100710.94
2022-10-13T08:42:55.583Z,100714.03
2022-10-13T08:44:41.274Z,100719.13
2022-10-13T08:45:42.704Z,100714.63
2022-10-13T08:46:47.479Z,100714.63
2022-10-13T08:47:49.352Z,100712.38
2022-10-13T08:48:50.844Z,100716.03
2022-10-13T08:49:56.466Z,100713.53
2022-10-13T08:51:01.019Z,100713.22
2022-10-13T08:52:05.374Z,100712.38
2022-10-13T08:53:12.825Z,100712.06
2022-10-13T08:54:19.712Z,100714.06
2022-10-13T08:55:25.450Z,100724.75
2022-10-13T08:56:33.726Z,100717.69
2022-10-13T08:57:35.211Z,100719.38
2022-10-13T08:58:37.383Z,100716.56
2022-10-13T08:59:39.555Z,100710.94
2022-10-13T09:00:41.284Z,100716.31
2022-10-13T09:01:43.291Z,100725.31
2022-10-13T09:02:45.282Z,100727.56
2022-10-13T09:03:47.715Z,100724.19
2022-10-13T09:04:49.384Z,100716.84
2022-10-13T09:06:05.615Z,100715.75
2022-10-13T09:07:07.235Z,100728.13
2022-10-13T09:08:12.036Z,100728.72
2022-10-13T09:09:14.327Z,100728.13
2022-10-13T09:10:18.730Z,100722.50
2022-10-13T09:11:20.391Z,100732.06
2022-10-13T09:12:24.318Z,100732.66
2022-10-13T09:13:25.798Z,100726.75
2022-10-13T09:14:29.801Z,100727.88
2022-10-13T09:15:31.279Z,100728.97
2022-10-13T09:16:34.919Z,100721.41
2022-10-13T09:17:39.386Z,100720.53
2022-10-13T09:18:40.894Z,100715.19
2022-10-13T09:20:01.768Z,100721.94
2022-10-13T09:21:17.276Z,100719.13
2022-10-13T09:22:27.683Z,100731.16
2022-10-13T09:23:29.121Z,100722.44
2022-10-13T09:24:32.254Z,100720.19
2022-10-13T09:25:40.683Z,100720.75
2022-10-13T09:26:42.259Z,100721.59
2022-10-13T09:27:46.767Z,100716.81
2022-10-13T09:28:48.351Z,100726.38
2022-10-13T09:29:49.815Z,100722.41
2022-10-13T09:31:04.594Z,100724.69
2022-10-13T09:32:14.939Z,100728.06
2022-10-13T09:33:19.013Z,100721.31
2022-10-13T09:34:20.442Z,100714.56
2022-10-13T09:35:22.143Z,100714.28
2022-10-13T09:36:23.566Z,100714.56
2022-10-13T09:37:25.438Z,100721.03
2022-10-13T09:38:26.891Z,100713.72
2022-10-13T09:39:28.527Z,100717.94
2022-10-13T09:40:32.145Z,100704.44
2022-10-13T09:41:33.689Z,100708.66
2022-10-13T09:42:35.117Z,100717.63
2022-10-13T09:43:41.788Z,100712.56
2022-10-13T09:44:43.204Z,100712.00
2022-10-13T09:45:44.659Z,100710.84
2022-10-13T09:46:47.828Z,100707.22
2022-10-13T09:47:49.702Z,100690.94
2022-10-13T09:48:52.306Z,100697.09
2022-10-13T09:50:06.479Z,100695.97
2022-10-13T09:51:27.203Z,100693.16
2022-10-13T09:52:28.719Z,100691.72
2022-10-13T09:53:49.260Z,100692.56
2022-10-13T09:55:13.773Z,100694.78
2022-10-13T09:56:17.947Z,100686.38
2022-10-13T09:57:22.148Z,100691.41
2022-10-13T09:58:27.812Z,100692.28
2022-10-13T09:59:35.883Z,100686.34
2022-10-13T10:00:37.310Z,100686.91
2022-10-13T10:01:39.707Z,100693.34
2022-10-13T10:02:45.309Z,100698.72
2022-10-13T10:03:47.311Z,100700.41
2022-10-13T10:04:48.792Z,100716.16
2022-10-13T10:05:51.014Z,100707.13
2022-10-13T10:06:52.502Z,100702.09
2022-10-13T10:07:53.967Z,100705.44
2022-10-13T10:09:03.423Z,100703.47
2022-10-13T10:10:07.017Z,100708.81
2022-10-13T10:11:10.825Z,100706.53
2022-10-13T10:12:13.238Z,100709.06
2022-10-13T10:13:14.744Z,100705.13
2022-10-13T10:14:16.134Z,100712.72
2022-10-13T10:15:21.419Z,100709.59
2022-10-13T10:16:22.942Z,100713.28
2022-10-13T10:17:36.756Z,100704.84
2022-10-13T10:18:44.774Z,100694.16
2022-10-13T10:19:55.029Z,100698.94
2022-10-13T10:21:05.243Z,100691.88
2022-10-13T10:22:14.280Z,100699.19
2022-10-13T10:23:38.627Z,100691.66
2022-10-13T10:24:46.815Z,100698.66
2022-10-13T10:25:52.394Z,100700.31
2022-10-13T10:26:55.571Z,100689.38
2022-10-13T10:28:15.826Z,100687.94
2022-10-13T10:29:18.914Z,100691.59
2022-10-13T10:30:22.244Z,100675.56
2022-10-13T10:31:26.845Z,100674.72
2022-10-13T10:32:34.457Z,100676.41
2022-10-13T10:33:40.396Z,100671.63
2022-10-13T10:34:43.698Z,100682.56
2022-10-13T10:36:04.091Z,100678.38
2022-10-13T10:37:08.316Z,100676.69
2022-10-13T10:38:15.266Z,100674.44
2022-10-13T10:39:36.079Z,100673.28
2022-10-13T10:41:00.990Z,100663.72
2022-10-13T10:42:03.665Z,100659.53
2022-10-13T10:43:23.586Z,100655.59
2022-10-13T10:44:26.987Z,100663.44
2022-10-13T10:45:30.119Z,100665.09
2022-10-13T10:46:51.831Z,100654.69
2022-10-13T10:47:55.744Z,100656.94
2022-10-13T10:49:00.274Z,100663.13
2022-10-13T10:50:02.407Z,100658.94
2022-10-13T10:51:05.772Z,100656.66
2022-10-13T10:52:08.183Z,100656.97
2022-10-13T10:53:12.698Z,100649.94
2022-10-13T10:54:20.348Z,100650.31
2022-10-13T10:55:27.930Z,100640.75
2022-10-13T10:56:30.714Z,100646.91
2022-10-13T10:57:36.288Z,100649.06
2022-10-13T10:58:41.294Z,100639.47
2022-10-13T10:59:42.798Z,100634.38
2022-10-13T11:00:51.308Z,100633.78
2022-10-13T11:02:11.338Z,100630.59
2022-10-13T11:03:38.818Z,100619.25
2022-10-13T11:04:43.707Z,100625.63
2022-10-13T11:05:57.205Z,100622.16
2022-10-13T11:06:58.629Z,100617.03
2022-10-13T11:08:00.509Z,100610.25
2022-10-13T11:09:02.160Z,100617.25
2022-10-13T11:10:04.926Z,100609.63
2022-10-13T11:11:37.514Z,100611.53
2022-10-13T11:12:52.406Z,100610.09
2022-10-13T11:14:06.107Z,100599.97
2022-10-13T11:15:11.194Z,100593.72
2022-10-13T11:16:30.976Z,100599.06
2022-10-13T11:17:38.924Z,100587.78
2022-10-13T11:18:59.432Z,100591.41
2022-10-13T11:20:04.303Z,100600.09
2022-10-13T11:21:05.791Z,100592.47
2022-10-13T11:22:07.959Z,100595.84
2022-10-13T11:23:14.487Z,100590.75
2022-10-13T11:24:34.204Z,100591.84
2022-10-13T11:25:42.313Z,100577.22
2022-10-13T11:26:43.867Z,100582.78
2022-10-13T11:27:46.746Z,100578.88
2022-10-13T11:28:48.418Z,100576.31
2022-10-13T11:29:54.808Z,100573.13
2022-10-13T11:30:57.402Z,100586.03
2022-10-13T11:31:58.845Z,100583.44
2022-10-13T11:33:09.180Z,100580.03
2022-10-13T11:34:25.171Z,100574.63
2022-10-13T11:35:26.934Z,100578.53
2022-10-13T11:36:37.661Z,100587.50
2022-10-13T11:37:39.060Z,100588.19
2022-10-13T11:38:40.482Z,100590.72
2022-10-13T11:39:47.802Z,100592.00
2022-10-13T11:41:04.398Z,100582.97
2022-10-13T11:42:10.248Z,100590.41
2022-10-13T11:43:14.879Z,100584.50
2022-10-13T11:45:32.269Z,100584.19
2022-10-13T11:46:52.135Z,100579.97
2022-10-13T11:48:07.013Z,100587.22
2022-10-13T11:49:30.354Z,100591.38
2022-10-13T11:50:44.137Z,100584.88
2022-10-13T11:52:05.950Z,100583.75
2022-10-13T11:53:13.667Z,100594.09
2022-10-13T11:54:27.903Z,100589.38
2022-10-13T11:55:29.330Z,100586.25
2022-10-13T11:56:33.702Z,100590.97
2022-10-13T11:57:35.260Z,100585.34
2022-10-13T11:58:41.487Z,100581.59
2022-10-13T11:59:45.164Z,100585.19
2022-10-13T12:00:52.622Z,100585.81
2022-10-13T12:01:57.427Z,100587.47
2022-10-13T12:02:58.951Z,100592.19
2022-10-13T12:04:12.535Z,100592.50
2022-10-13T12:05:19.690Z,100590.81
2022-10-13T12:06:25.118Z,100581.84
2022-10-13T12:07:26.534Z,100579.53
2022-10-13T12:08:28.042Z,100581.00
2022-10-13T12:09:29.886Z,100573.38
2022-10-13T12:10:35.482Z,100579.00
2022-10-13T12:11:37.419Z,100569.41